Aeroporto :
LOGIN :

Iscrizione | Disclaimer

   EN    FR    IT 

 










Sommario :    VFR   VFR Marginale   IFR   IFR Intensivo   IFR Molto Intensivo
Visibilità : 
Base nubi : 
>= 8 km
>= 3000ft
5 / 8 km
1000 / 3000 ft
1500m / 5 km
500 / 1000 ft
800 / 1500m
200 / 500 ft
< 800m
< 200 ft
Simboli :   Temporali  Nebbia  Neve Forte  Precipitazioni Forti  Vento > 20 kt
SIGMETs :   Varie  Temporali  Ghiacco  Turbolenza  Onda orograficha  Ceneri Vulcaniche






- Altitudine del aeroporto : 39 ft


ETNH - Hohn AB

ULTIMO METAR :
  • 090720Z 07008KT 9999 BKN150 BKN300 23/14 Q1020 BLU

METARs OBSOLETI :
  • 090620Z 03004KT 9999 BKN140 BKN300 21/16 Q1020 BLU
  • 090520Z VRB02KT 9999 SCT140 BKN300 19/16 Q1020 BLU+

TAF TAF ETNH
Valido dal 09 a 05 ore il 09 a 17 ore UTC


090401Z 0905/0917 01005KT 9999 NSW BKN150
BECMG 0909/0911 05010KT 9999 NSW SCT150 BY ETGL



MetMap, La meteo Aeronautica in un colpo d'occhio ! - Copyright ORBIFLY Dicembre 2007 - Disclaimer

ORBIFLY MET'MAP TEAM :

Programmazione e sviluppo : Alexandra Zaïnal
Concezione : Baudouin d'Aumeries
Aiuto per la programmazione : Marc-Olivier Méhu
Supporto tecnico e logistico : Manuel Goepfert
Aiuto per la traduzione : Arnaldo La Scala

Contatto : metmap@orbifly.com




FONTI E CREDITI :

   NOAA